Time;durP1;ratioP1;P1;durP2;ratioP2;P2;SDS_P1;SDS_P2;PMS_P1;PMS_P2;Temp;Humidity;BMP_temperature;BMP_pressure;BME280_temperature;BME280_humidity;BME280_pressure;Samples;Min_cycle;Max_cycle;Signal;HPM_P1;HPM_P2
2022/02/26 00:00:45;;;;;;;5.37;2.90;;;;;;;;;;5018232;28;20188;-52
2022/02/26 00:03:12;;;;;;;7.27;3.57;;;;;;;;;;5031532;28;20653;-52
2022/02/26 00:05:40;;;;;;;8.90;3.10;;;;;;;;;;5034767;28;20346;-51
2022/02/26 00:08:06;;;;;;;4.37;2.83;;;;;;;;;;5029021;28;20189;-56
2022/02/26 00:10:32;;;;;;;5.60;2.63;;;;;;;;;;5026955;28;20186;-52
2022/02/26 00:12:58;;;;;;;6.63;3.30;;;;;;;;;;5033973;28;20661;-52
2022/02/26 00:15:25;;;;;;;6.57;3.17;;;;;;;;;;5027181;28;20209;-51
2022/02/26 00:17:51;;;;;;;4.17;2.47;;;;;;;;;;5021688;28;20348;-51
2022/02/26 00:20:17;;;;;;;7.00;3.63;;;;;;;;;;5030943;28;20590;-53
2022/02/26 00:22:43;;;;;;;4.40;3.17;;;;;;;;;;5026122;28;20189;-54
2022/02/26 00:25:10;;;;;;;8.03;3.63;;;;;;;;;;5031634;28;20197;-53
2022/02/26 00:27:36;;;;;;;4.80;2.70;;;;;;;;;;5002456;28;20273;-54
2022/02/26 00:30:03;;;;;;;4.37;2.53;;;;;;;;;;5033384;28;20213;-52
2022/02/26 00:32:30;;;;;;;3.63;2.60;;;;;;;;;;5035309;28;20181;-54
2022/02/26 00:34:56;;;;;;;4.37;2.73;;;;;;;;;;5025407;28;20631;-52
2022/02/26 00:37:22;;;;;;;6.07;2.90;;;;;;;;;;5030252;28;20197;-52
2022/02/26 00:39:49;;;;;;;7.10;3.80;;;;;;;;;;5025799;28;20255;-53
2022/02/26 00:42:15;;;;;;;3.27;2.30;;;;;;;;;;5020162;28;20189;-52
2022/02/26 00:44:41;;;;;;;7.70;3.13;;;;;;;;;;5038477;28;20209;-52
2022/02/26 00:47:08;;;;;;;7.13;4.00;;;;;;;;;;5028036;28;20247;-52
2022/02/26 00:49:46;;;;;;;7.43;3.20;;;;;;;;;;5030920;28;20589;-54
2022/02/26 00:52:13;;;;;;;5.23;3.40;;;;;;;;;;5000059;28;20178;-52
2022/02/26 00:54:39;;;;;;;4.70;3.03;;;;;;;;;;5022193;28;20187;-52
2022/02/26 00:57:05;;;;;;;5.30;2.93;;;;;;;;;;5047522;28;20213;-52
2022/02/26 00:59:31;;;;;;;4.27;2.73;;;;;;;;;;5031238;28;20185;-52
2022/02/26 01:01:57;;;;;;;4.07;2.50;;;;;;;;;;5034249;28;20277;-53
2022/02/26 01:04:24;;;;;;;7.00;3.33;;;;;;;;;;5033515;28;20289;-52
2022/02/26 01:06:50;;;;;;;6.97;3.40;;;;;;;;;;5024324;28;20192;-52
2022/02/26 01:09:16;;;;;;;9.60;3.07;;;;;;;;;;5038326;28;20294;-54
2022/02/26 01:11:42;;;;;;;4.97;3.53;;;;;;;;;;5004848;28;20193;-53
2022/02/26 01:14:11;;;;;;;8.60;3.57;;;;;;;;;;5012235;28;20186;-53
2022/02/26 01:16:37;;;;;;;4.37;2.80;;;;;;;;;;5019253;28;20633;-54
2022/02/26 01:19:04;;;;;;;3.80;2.73;;;;;;;;;;5034408;28;20281;-55
2022/02/26 01:21:30;;;;;;;4.23;2.73;;;;;;;;;;5023446;28;20197;-54
2022/02/26 01:23:56;;;;;;;3.63;3.00;;;;;;;;;;5024030;28;20291;-53
2022/02/26 01:26:23;;;;;;;5.57;2.90;;;;;;;;;;5026181;28;20183;-55
2022/02/26 01:28:49;;;;;;;4.70;3.30;;;;;;;;;;5028808;28;20253;-53
2022/02/26 01:31:15;;;;;;;4.37;3.00;;;;;;;;;;5024420;28;20625;-52
2022/02/26 01:33:41;;;;;;;4.77;2.50;;;;;;;;;;5024418;28;20264;-52
2022/02/26 01:36:08;;;;;;;4.33;3.07;;;;;;;;;;5014919;28;20225;-53
2022/02/26 01:38:34;;;;;;;6.13;2.97;;;;;;;;;;5027917;28;20230;-53
2022/02/26 01:41:01;;;;;;;5.47;3.07;;;;;;;;;;5023491;28;20620;-52
2022/02/26 01:43:27;;;;;;;6.57;2.83;;;;;;;;;;5032444;28;20571;-52
2022/02/26 01:45:54;;;;;;;5.43;2.90;;;;;;;;;;5023751;28;20315;-54
2022/02/26 01:48:20;;;;;;;5.17;2.63;;;;;;;;;;5019663;28;20178;-52
2022/02/26 01:50:46;;;;;;;5.37;3.13;;;;;;;;;;5030429;28;20528;-53
2022/02/26 01:53:14;;;;;;;3.30;2.50;;;;;;;;;;5023739;28;20193;-52
2022/02/26 01:55:40;;;;;;;5.27;2.60;;;;;;;;;;5010914;28;20193;-52
2022/02/26 01:58:06;;;;;;;3.87;2.57;;;;;;;;;;5014240;28;20217;-53
2022/02/26 02:00:32;;;;;;;5.23;2.63;;;;;;;;;;5026782;28;20551;-50
2022/02/26 02:02:58;;;;;;;3.20;2.57;;;;;;;;;;5029888;28;20192;-53
2022/02/26 02:05:26;;;;;;;7.47;2.90;;;;;;;;;;5028524;28;20253;-53
2022/02/26 02:07:52;;;;;;;4.27;2.77;;;;;;;;;;5049946;28;20217;-52
2022/02/26 02:10:19;;;;;;;4.40;2.63;;;;;;;;;;5032821;28;20178;-53
2022/02/26 02:12:46;;;;;;;5.60;2.80;;;;;;;;;;5027389;28;20185;-52
2022/02/26 02:15:12;;;;;;;5.43;2.77;;;;;;;;;;5028034;28;20239;-53
2022/02/26 02:17:41;;;;;;;4.97;2.97;;;;;;;;;;5022017;28;20190;-53
2022/02/26 02:20:07;;;;;;;5.10;2.80;;;;;;;;;;5030667;28;20186;-52
2022/02/26 02:22:36;;;;;;;4.23;2.87;;;;;;;;;;5030395;28;20654;-54
2022/02/26 02:25:06;;;;;;;7.53;3.03;;;;;;;;;;5029896;28;20626;-52
2022/02/26 02:27:32;;;;;;;5.30;3.00;;;;;;;;;;5026558;28;20193;-52
2022/02/26 02:29:58;;;;;;;5.10;2.83;;;;;;;;;;5022798;28;20198;-52
2022/02/26 02:32:24;;;;;;;5.00;2.77;;;;;;;;;;5019858;28;20186;-52
2022/02/26 02:34:50;;;;;;;4.63;2.50;;;;;;;;;;5020385;28;20256;-52
2022/02/26 02:37:16;;;;;;;3.87;3.00;;;;;;;;;;5027341;28;20240;-52
2022/02/26 02:39:43;;;;;;;5.63;2.80;;;;;;;;;;5027307;28;20173;-52
2022/02/26 02:42:09;;;;;;;3.83;2.90;;;;;;;;;;5023500;28;20337;-52
2022/02/26 02:44:35;;;;;;;3.77;2.60;;;;;;;;;;5025337;28;20214;-53
2022/02/26 02:47:01;;;;;;;4.60;2.87;;;;;;;;;;5031136;28;20537;-52
2022/02/26 02:49:27;;;;;;;8.43;3.10;;;;;;;;;;5021459;28;20186;-53
2022/02/26 02:51:53;;;;;;;3.43;2.43;;;;;;;;;;5036567;28;20184;-53
2022/02/26 02:54:20;;;;;;;10.77;3.47;;;;;;;;;;5023815;28;20231;-53
2022/02/26 02:56:46;;;;;;;5.27;2.93;;;;;;;;;;5036582;28;20572;-52
2022/02/26 02:59:12;;;;;;;6.10;3.00;;;;;;;;;;5031588;28;20188;-53
2022/02/26 03:01:38;;;;;;;7.50;2.93;;;;;;;;;;5026179;28;20194;-52
2022/02/26 03:04:05;;;;;;;3.10;2.63;;;;;;;;;;5021697;28;20706;-55
2022/02/26 03:06:31;;;;;;;6.67;2.93;;;;;;;;;;5029087;28;20661;-53
2022/02/26 03:08:57;;;;;;;4.33;2.80;;;;;;;;;;5028544;28;20264;-53
2022/02/26 03:11:23;;;;;;;5.77;3.00;;;;;;;;;;5028742;28;20456;-53
2022/02/26 03:13:49;;;;;;;4.30;2.73;;;;;;;;;;5029488;28;20184;-53
2022/02/26 03:16:16;;;;;;;5.43;2.87;;;;;;;;;;5011929;28;20903;-54
2022/02/26 03:18:42;;;;;;;5.53;3.00;;;;;;;;;;5010348;28;20596;-55
2022/02/26 03:21:08;;;;;;;4.03;3.20;;;;;;;;;;5042078;28;20412;-53
2022/02/26 03:23:35;;;;;;;3.83;2.47;;;;;;;;;;5024685;28;20500;-54
2022/02/26 03:26:01;;;;;;;7.20;3.17;;;;;;;;;;5023214;28;20205;-53
2022/02/26 03:28:27;;;;;;;4.70;2.80;;;;;;;;;;5026039;28;20188;-56
2022/02/26 03:30:53;;;;;;;6.20;2.93;;;;;;;;;;5008006;28;20177;-53
2022/02/26 03:33:19;;;;;;;4.13;2.63;;;;;;;;;;5028514;28;20814;-55
2022/02/26 03:35:45;;;;;;;5.00;2.63;;;;;;;;;;5023857;28;20429;-55
2022/02/26 03:38:12;;;;;;;3.97;2.73;;;;;;;;;;5019763;28;21205;-53
2022/02/26 03:40:39;;;;;;;4.00;2.80;;;;;;;;;;5022378;28;20259;-52
2022/02/26 03:43:05;;;;;;;4.47;3.13;;;;;;;;;;5032394;28;20859;-55
2022/02/26 03:45:31;;;;;;;5.20;2.60;;;;;;;;;;5042628;28;20464;-54
2022/02/26 03:47:58;;;;;;;5.60;2.43;;;;;;;;;;5019183;28;20426;-53
2022/02/26 03:50:24;;;;;;;7.70;3.40;;;;;;;;;;5020813;28;20439;-53
2022/02/26 03:52:50;;;;;;;6.07;2.77;;;;;;;;;;5014067;28;20483;-55
2022/02/26 03:55:16;;;;;;;5.30;2.93;;;;;;;;;;5023344;28;20365;-54
2022/02/26 03:57:42;;;;;;;4.67;2.93;;;;;;;;;;5018077;28;20759;-53
2022/02/26 04:00:09;;;;;;;6.00;2.83;;;;;;;;;;5025363;28;20340;-54
2022/02/26 04:02:35;;;;;;;5.27;3.17;;;;;;;;;;5029774;28;20437;-57
2022/02/26 04:05:01;;;;;;;5.23;2.53;;;;;;;;;;5023822;28;20197;-54
2022/02/26 04:07:27;;;;;;;5.23;3.03;;;;;;;;;;4999778;28;20177;-54
2022/02/26 04:09:53;;;;;;;3.37;2.93;;;;;;;;;;5008261;28;20788;-53
2022/02/26 04:12:20;;;;;;;5.77;2.50;;;;;;;;;;5018772;28;20542;-54
2022/02/26 04:14:46;;;;;;;6.10;3.30;;;;;;;;;;5030536;28;20173;-53
2022/02/26 04:17:12;;;;;;;5.50;3.57;;;;;;;;;;5007710;28;20184;-54
2022/02/26 04:19:38;;;;;;;6.93;3.03;;;;;;;;;;5020866;28;20272;-54
2022/02/26 04:22:07;;;;;;;3.63;3.03;;;;;;;;;;5013197;28;20182;-53
2022/02/26 04:24:33;;;;;;;4.77;3.00;;;;;;;;;;5018932;28;20205;-55
2022/02/26 04:27:02;;;;;;;6.70;3.10;;;;;;;;;;5030758;28;20720;-55
2022/02/26 04:29:28;;;;;;;5.33;3.07;;;;;;;;;;5001203;28;20471;-54
2022/02/26 04:31:55;;;;;;;5.83;3.60;;;;;;;;;;5030845;28;20177;-54
2022/02/26 04:34:21;;;;;;;6.83;2.80;;;;;;;;;;5020240;28;20243;-55
2022/02/26 04:36:47;;;;;;;5.97;2.90;;;;;;;;;;5026060;28;20182;-54
2022/02/26 04:39:13;;;;;;;6.23;3.33;;;;;;;;;;5017453;28;20178;-54
2022/02/26 04:41:40;;;;;;;6.93;3.30;;;;;;;;;;4999679;28;20178;-54
2022/02/26 04:44:06;;;;;;;4.97;3.17;;;;;;;;;;5020779;28;20634;-54
2022/02/26 04:46:36;;;;;;;6.60;3.13;;;;;;;;;;5028312;28;20345;-55
2022/02/26 04:49:02;;;;;;;5.37;3.20;;;;;;;;;;5021886;28;20190;-55
2022/02/26 04:51:29;;;;;;;3.73;2.83;;;;;;;;;;5016782;28;20441;-55
2022/02/26 04:53:55;;;;;;;5.80;3.00;;;;;;;;;;5026491;28;20166;-54
2022/02/26 04:56:21;;;;;;;5.23;3.30;;;;;;;;;;5005678;28;20285;-55
2022/02/26 04:58:47;;;;;;;5.30;2.80;;;;;;;;;;5003406;28;20529;-53
2022/02/26 05:01:14;;;;;;;4.73;2.83;;;;;;;;;;5022971;28;20182;-53
2022/02/26 05:03:41;;;;;;;6.93;2.90;;;;;;;;;;5018842;28;20436;-55
2022/02/26 05:06:07;;;;;;;7.17;3.70;;;;;;;;;;5025629;28;20962;-53
2022/02/26 05:08:33;;;;;;;7.73;3.03;;;;;;;;;;5011912;28;20442;-54
2022/02/26 05:11:00;;;;;;;5.60;2.93;;;;;;;;;;5010129;28;20206;-53
2022/02/26 05:13:26;;;;;;;5.77;3.20;;;;;;;;;;5027186;28;20417;-54
2022/02/26 05:15:52;;;;;;;5.07;3.03;;;;;;;;;;5007131;28;20426;-53
2022/02/26 05:18:19;;;;;;;6.20;3.60;;;;;;;;;;5014949;28;20469;-54
2022/02/26 05:20:45;;;;;;;6.40;3.40;;;;;;;;;;5037224;28;20256;-55
2022/02/26 05:23:11;;;;;;;5.47;4.03;;;;;;;;;;5022442;28;20699;-54
2022/02/26 05:25:37;;;;;;;5.33;2.90;;;;;;;;;;5033542;28;20736;-54
2022/02/26 05:28:03;;;;;;;7.07;3.40;;;;;;;;;;5021522;28;20421;-53
2022/02/26 05:30:30;;;;;;;5.87;3.23;;;;;;;;;;5006004;28;20451;-53
2022/02/26 05:32:56;;;;;;;3.53;3.20;;;;;;;;;;5008612;28;20511;-53
2022/02/26 05:35:22;;;;;;;5.00;3.43;;;;;;;;;;5002182;28;20329;-53
2022/02/26 05:37:48;;;;;;;7.00;3.67;;;;;;;;;;4999165;28;20712;-56
2022/02/26 05:40:15;;;;;;;8.00;3.60;;;;;;;;;;5008050;28;20430;-54
2022/02/26 05:42:42;;;;;;;8.43;2.93;;;;;;;;;;4998053;28;20191;-54
2022/02/26 05:45:08;;;;;;;5.10;3.30;;;;;;;;;;4999366;28;20466;-54
2022/02/26 05:47:34;;;;;;;4.93;2.70;;;;;;;;;;5012952;28;20430;-53
2022/02/26 05:50:01;;;;;;;8.53;3.70;;;;;;;;;;4988069;28;20433;-53
2022/02/26 05:52:27;;;;;;;6.40;4.17;;;;;;;;;;5009951;28;20430;-54
2022/02/26 05:54:53;;;;;;;5.00;3.43;;;;;;;;;;5008532;28;20472;-53
2022/02/26 05:57:20;;;;;;;4.70;3.53;;;;;;;;;;4989885;28;20457;-54
2022/02/26 05:59:46;;;;;;;5.10;3.77;;;;;;;;;;5004789;28;20432;-56
2022/02/26 06:02:12;;;;;;;4.27;3.83;;;;;;;;;;5008766;28;20437;-54
2022/02/26 06:04:39;;;;;;;6.83;3.70;;;;;;;;;;5006274;28;20461;-55
2022/02/26 06:07:05;;;;;;;7.73;3.70;;;;;;;;;;4975246;28;20430;-54
2022/02/26 06:09:32;;;;;;;4.50;3.63;;;;;;;;;;5002140;28;21234;-56
2022/02/26 06:11:58;;;;;;;5.67;3.30;;;;;;;;;;5007613;28;20779;-54
2022/02/26 06:14:24;;;;;;;5.23;3.73;;;;;;;;;;5000814;28;20214;-55
2022/02/26 06:16:50;;;;;;;7.93;3.43;;;;;;;;;;4983868;28;20461;-54
2022/02/26 06:19:16;;;;;;;5.87;2.90;;;;;;;;;;5005536;28;20425;-53
2022/02/26 06:21:43;;;;;;;8.80;3.57;;;;;;;;;;5002293;28;20191;-54
2022/02/26 06:24:09;;;;;;;7.07;3.83;;;;;;;;;;5001267;28;20924;-54
2022/02/26 06:26:35;;;;;;;5.00;3.57;;;;;;;;;;5002044;28;20436;-54
2022/02/26 06:29:01;;;;;;;7.73;4.17;;;;;;;;;;5000531;28;20487;-54
2022/02/26 06:31:27;;;;;;;6.43;3.67;;;;;;;;;;5014560;28;20801;-54
2022/02/26 06:33:53;;;;;;;6.97;3.47;;;;;;;;;;5011160;28;20465;-54
2022/02/26 06:36:19;;;;;;;10.37;3.93;;;;;;;;;;5028702;28;20500;-54
2022/02/26 06:38:46;;;;;;;8.03;3.50;;;;;;;;;;5023404;28;21006;-54
2022/02/26 06:41:12;;;;;;;8.33;4.23;;;;;;;;;;5028158;28;20428;-54
2022/02/26 06:43:38;;;;;;;12.60;4.77;;;;;;;;;;5018624;28;20441;-55
2022/02/26 06:46:08;;;;;;;9.03;4.17;;;;;;;;;;5033758;28;20457;-53
2022/02/26 06:48:35;;;;;;;10.73;4.20;;;;;;;;;;5024511;28;20435;-54
2022/02/26 06:51:01;;;;;;;8.53;4.43;;;;;;;;;;5031059;28;20420;-55
2022/02/26 06:53:27;;;;;;;11.87;4.47;;;;;;;;;;5021057;28;20753;-55
2022/02/26 06:55:53;;;;;;;7.70;3.33;;;;;;;;;;5026472;28;20791;-53
2022/02/26 06:58:19;;;;;;;7.67;4.30;;;;;;;;;;5026020;28;20543;-54
2022/02/26 07:00:45;;;;;;;12.30;5.30;;;;;;;;;;5028568;28;20610;-54
2022/02/26 07:03:11;;;;;;;8.87;4.73;;;;;;;;;;5025431;28;20494;-53
2022/02/26 07:05:37;;;;;;;5.73;4.33;;;;;;;;;;5005303;28;20559;-54
2022/02/26 07:08:04;;;;;;;8.27;4.60;;;;;;;;;;5024614;28;20879;-53
2022/02/26 07:10:30;;;;;;;14.90;4.80;;;;;;;;;;5024715;28;20441;-55
2022/02/26 07:12:56;;;;;;;6.77;4.03;;;;;;;;;;5026373;28;20452;-54
2022/02/26 07:15:22;;;;;;;11.83;4.80;;;;;;;;;;5016998;28;20461;-54
2022/02/26 07:17:48;;;;;;;10.90;4.73;;;;;;;;;;5025600;28;21006;-54
2022/02/26 07:20:14;;;;;;;11.60;4.80;;;;;;;;;;5027033;28;20989;-54
2022/02/26 07:22:41;;;;;;;10.07;5.07;;;;;;;;;;5024656;28;20468;-54
2022/02/26 07:25:07;;;;;;;19.00;5.70;;;;;;;;;;5028544;28;20471;-55
2022/02/26 07:27:33;;;;;;;8.73;4.97;;;;;;;;;;5035670;28;20416;-53
2022/02/26 07:29:59;;;;;;;7.33;4.80;;;;;;;;;;5045692;28;20428;-54
2022/02/26 07:32:25;;;;;;;15.03;5.90;;;;;;;;;;5033202;28;20991;-53
2022/02/26 07:34:51;;;;;;;9.20;6.33;;;;;;;;;;5035440;28;20543;-54
2022/02/26 07:37:23;;;;;;;15.47;5.37;;;;;;;;;;5045300;28;20401;-53
2022/02/26 07:39:49;;;;;;;13.23;5.77;;;;;;;;;;5036473;28;20192;-55
2022/02/26 07:42:15;;;;;;;14.00;6.00;;;;;;;;;;5048939;28;20435;-54
2022/02/26 07:44:41;;;;;;;21.07;6.70;;;;;;;;;;5039214;28;20457;-54
2022/02/26 07:47:07;;;;;;;13.97;5.73;;;;;;;;;;5009163;28;20417;-53
2022/02/26 07:49:33;;;;;;;9.57;5.23;;;;;;;;;;5045221;28;20444;-54
2022/02/26 07:52:00;;;;;;;13.57;5.27;;;;;;;;;;5025972;28;20425;-55
2022/02/26 07:54:26;;;;;;;14.73;5.67;;;;;;;;;;5010379;28;20489;-54
2022/02/26 07:56:52;;;;;;;13.70;6.40;;;;;;;;;;5018335;28;20455;-54
2022/02/26 07:59:18;;;;;;;14.90;6.23;;;;;;;;;;5035776;28;20451;-54
2022/02/26 08:01:44;;;;;;;8.90;6.03;;;;;;;;;;5020959;28;20495;-54
2022/02/26 08:04:10;;;;;;;16.73;7.07;;;;;;;;;;5030651;28;20185;-56
2022/02/26 08:06:36;;;;;;;13.87;7.03;;;;;;;;;;5030685;28;20427;-54
2022/02/26 08:09:03;;;;;;;18.47;7.03;;;;;;;;;;5026785;28;20795;-54
2022/02/26 08:11:32;;;;;;;14.53;6.37;;;;;;;;;;5034252;28;20508;-53
2022/02/26 08:13:59;;;;;;;18.83;7.23;;;;;;;;;;5050594;28;20467;-54
2022/02/26 08:16:26;;;;;;;16.50;8.03;;;;;;;;;;5026568;28;20420;-53
2022/02/26 08:18:52;;;;;;;18.80;7.37;;;;;;;;;;5021253;28;20478;-52
2022/02/26 08:21:20;;;;;;;11.00;7.33;;;;;;;;;;5026673;28;21338;-53
2022/02/26 08:23:48;;;;;;;16.03;8.80;;;;;;;;;;5032262;28;20934;-53
2022/02/26 08:26:15;;;;;;;14.07;8.27;;;;;;;;;;5029160;28;20463;-54
2022/02/26 08:28:41;;;;;;;17.80;8.73;;;;;;;;;;5048075;28;20177;-53
2022/02/26 08:31:07;;;;;;;16.07;8.57;;;;;;;;;;5028682;28;20784;-54
2022/02/26 08:33:33;;;;;;;15.13;9.10;;;;;;;;;;5040039;28;20494;-53
2022/02/26 08:36:00;;;;;;;13.40;8.53;;;;;;;;;;5045457;28;20419;-54
2022/02/26 08:38:26;;;;;;;16.33;9.70;;;;;;;;;;5035024;28;20420;-53
2022/02/26 08:40:52;;;;;;;17.93;9.13;;;;;;;;;;5030579;28;20428;-53
2022/02/26 08:43:18;;;;;;;17.13;9.40;;;;;;;;;;5037449;28;20427;-53
2022/02/26 08:45:45;;;;;;;14.43;8.63;;;;;;;;;;5027790;28;20549;-54
2022/02/26 08:48:11;;;;;;;15.83;9.87;;;;;;;;;;5026788;28;20431;-54
2022/02/26 08:50:37;;;;;;;19.03;9.80;;;;;;;;;;5021596;28;20261;-53
2022/02/26 08:53:03;;;;;;;22.27;10.87;;;;;;;;;;5028401;28;20420;-53
2022/02/26 08:55:29;;;;;;;19.93;10.43;;;;;;;;;;5028958;28;20702;-53
2022/02/26 08:57:55;;;;;;;17.73;10.13;;;;;;;;;;5032464;28;20448;-53
2022/02/26 09:00:22;;;;;;;16.80;10.40;;;;;;;;;;5009991;28;20831;-55
2022/02/26 09:02:48;;;;;;;17.43;10.07;;;;;;;;;;5025075;28;20447;-52
2022/02/26 09:05:14;;;;;;;17.63;10.83;;;;;;;;;;5019936;28;20842;-53
2022/02/26 09:07:40;;;;;;;20.77;10.90;;;;;;;;;;5026578;28;20434;-54
2022/02/26 09:10:07;;;;;;;17.97;9.93;;;;;;;;;;5031338;28;20424;-52
2022/02/26 09:12:33;;;;;;;15.03;9.40;;;;;;;;;;5024687;28;20444;-52
2022/02/26 09:14:59;;;;;;;21.07;10.87;;;;;;;;;;5034734;28;20816;-53
2022/02/26 09:17:25;;;;;;;19.47;10.60;;;;;;;;;;5030691;28;20645;-53
2022/02/26 09:19:52;;;;;;;15.90;10.77;;;;;;;;;;5013692;28;20935;-53
2022/02/26 09:22:18;;;;;;;23.70;11.60;;;;;;;;;;5024911;28;20514;-52
2022/02/26 09:24:44;;;;;;;19.60;10.60;;;;;;;;;;5033604;28;20459;-53
2022/02/26 09:27:11;;;;;;;18.73;11.60;;;;;;;;;;5030303;28;20440;-54
2022/02/26 09:29:37;;;;;;;20.30;11.20;;;;;;;;;;5032559;28;20485;-53
2022/02/26 09:32:03;;;;;;;22.73;11.90;;;;;;;;;;5038253;28;20420;-53
2022/02/26 09:34:29;;;;;;;22.80;11.37;;;;;;;;;;5008657;28;20467;-53
2022/02/26 09:36:56;;;;;;;21.57;11.57;;;;;;;;;;5023904;28;20190;-56
2022/02/26 09:39:25;;;;;;;21.00;11.50;;;;;;;;;;5030523;28;20236;-53
2022/02/26 09:41:56;;;;;;;20.07;11.97;;;;;;;;;;5022884;28;20225;-53
2022/02/26 09:44:22;;;;;;;20.43;12.30;;;;;;;;;;5035095;28;20770;-53
2022/02/26 09:46:48;;;;;;;21.70;12.00;;;;;;;;;;5027312;28;20432;-53
2022/02/26 09:49:14;;;;;;;18.53;10.43;;;;;;;;;;5019121;28;20251;-55
2022/02/26 09:51:41;;;;;;;19.53;11.67;;;;;;;;;;5023038;28;20432;-53
2022/02/26 09:54:08;;;;;;;21.20;12.60;;;;;;;;;;5021184;28;20424;-53
2022/02/26 09:56:34;;;;;;;24.67;11.37;;;;;;;;;;5036357;28;20452;-53
2022/02/26 09:59:00;;;;;;;18.43;10.63;;;;;;;;;;5026500;28;20440;-55
2022/02/26 10:01:26;;;;;;;21.00;12.63;;;;;;;;;;5021035;28;20680;-54
2022/02/26 10:04:05;;;;;;;23.67;11.93;;;;;;;;;;5006411;28;20433;-53
2022/02/26 10:06:31;;;;;;;19.73;12.07;;;;;;;;;;5013644;28;20441;-55
2022/02/26 10:08:59;;;;;;;19.23;9.90;;;;;;;;;;5027472;28;20181;-53
2022/02/26 10:11:26;;;;;;;22.50;13.80;;;;;;;;;;5029212;28;20189;-53
2022/02/26 10:14:18;;;;;;;25.70;12.83;;;;;;;;;;5023642;28;20916;-54
2022/02/26 10:16:44;;;;;;;29.40;12.00;;;;;;;;;;5024331;28;20665;-52
2022/02/26 10:19:10;;;;;;;24.80;12.13;;;;;;;;;;5020622;28;20708;-53
2022/02/26 10:21:41;;;;;;;23.30;12.63;;;;;;;;;;5025734;28;20455;-54
2022/02/26 10:24:07;;;;;;;25.03;12.50;;;;;;;;;;5025606;28;20546;-53
2022/02/26 10:26:33;;;;;;;22.77;12.10;;;;;;;;;;5025887;28;20433;-56
2022/02/26 10:29:07;;;;;;;23.23;12.37;;;;;;;;;;5018301;28;20429;-52
2022/02/26 10:31:43;;;;;;;24.87;13.23;;;;;;;;;;5014725;28;20175;-53
2022/02/26 10:34:26;;;;;;;24.83;13.10;;;;;;;;;;5023578;28;20309;-53
2022/02/26 10:37:08;;;;;;;28.57;14.17;;;;;;;;;;5025493;28;20577;-53
2022/02/26 10:39:40;;;;;;;25.27;12.83;;;;;;;;;;5010051;28;20451;-54
2022/02/26 10:42:07;;;;;;;21.37;11.63;;;;;;;;;;5025293;28;20427;-54
2022/02/26 10:44:33;;;;;;;24.03;13.03;;;;;;;;;;5026280;28;20871;-53
2022/02/26 10:47:10;;;;;;;25.80;13.33;;;;;;;;;;5023598;28;20186;-53
2022/02/26 10:49:40;;;;;;;21.73;12.07;;;;;;;;;;5022778;28;20178;-53
2022/02/26 10:52:08;;;;;;;22.43;12.40;;;;;;;;;;5012910;28;20447;-53
2022/02/26 10:54:34;;;;;;;21.70;12.33;;;;;;;;;;5018451;28;20281;-54
2022/02/26 10:57:03;;;;;;;26.80;12.63;;;;;;;;;;5019438;28;20206;-52
2022/02/26 10:59:30;;;;;;;28.57;13.03;;;;;;;;;;5002624;28;20551;-54
2022/02/26 11:02:07;;;;;;;20.40;11.97;;;;;;;;;;5024365;28;20193;-53
2022/02/26 11:04:34;;;;;;;20.47;12.17;;;;;;;;;;5021252;28;20241;-54
2022/02/26 11:07:00;;;;;;;24.37;12.50;;;;;;;;;;5031813;28;20203;-52
2022/02/26 11:09:27;;;;;;;24.37;12.90;;;;;;;;;;5013999;28;20182;-51
2022/02/26 11:11:55;;;;;;;18.50;12.23;;;;;;;;;;5033994;28;20178;-54
2022/02/26 11:14:22;;;;;;;20.73;11.10;;;;;;;;;;5016291;28;20184;-53
2022/02/26 11:16:53;;;;;;;16.03;11.50;;;;;;;;;;5005749;28;20520;-55
2022/02/26 11:19:20;;;;;;;24.60;12.43;;;;;;;;;;5024028;28;20193;-52
2022/02/26 11:21:49;;;;;;;19.73;10.87;;;;;;;;;;5017027;28;20186;-53
2022/02/26 11:24:17;;;;;;;22.37;12.63;;;;;;;;;;5018287;28;20637;-53
2022/02/26 11:26:43;;;;;;;22.53;12.30;;;;;;;;;;5015768;28;20809;-54
2022/02/26 11:29:11;;;;;;;25.13;15.07;;;;;;;;;;5015985;28;20886;-55
2022/02/26 11:31:57;;;;;;;22.70;11.80;;;;;;;;;;5022539;28;20205;-53
2022/02/26 11:34:26;;;;;;;24.90;14.40;;;;;;;;;;5010962;28;20406;-54
2022/02/26 11:36:54;;;;;;;22.47;11.40;;;;;;;;;;5015973;28;20705;-53
2022/02/26 11:39:30;;;;;;;22.97;12.10;;;;;;;;;;4990386;28;20209;-53
2022/02/26 11:42:14;;;;;;;17.77;10.90;;;;;;;;;;5016551;28;20178;-53
2022/02/26 11:44:41;;;;;;;22.75;13.85;;;;;;;;;;5020479;28;20421;-54
2022/02/26 11:47:11;;;;;;;21.07;12.33;;;;;;;;;;5022146;28;20362;-56
2022/02/26 11:49:37;;;;;;;18.33;11.37;;;;;;;;;;5015187;28;20243;-53
2022/02/26 11:52:04;;;;;;;21.03;10.83;;;;;;;;;;5026702;28;20725;-55
2022/02/26 11:54:30;;;;;;;23.73;11.40;;;;;;;;;;5020877;28;20669;-53
2022/02/26 11:56:59;;;;;;;18.07;10.27;;;;;;;;;;5021559;28;20214;-53
2022/02/26 11:59:49;;;;;;;19.13;10.07;;;;;;;;;;5023880;28;20186;-54
2022/02/26 12:02:16;;;;;;;17.37;10.47;;;;;;;;;;5035774;28;20213;-53
2022/02/26 12:04:56;;;;;;;23.40;10.93;;;;;;;;;;5022918;28;20205;-53
2022/02/26 12:07:29;;;;;;;15.10;10.30;;;;;;;;;;5024547;28;20182;-54
2022/02/26 12:10:05;;;;;;;22.13;11.67;;;;;;;;;;5026647;28;20684;-53
2022/02/26 12:12:34;;;;;;;21.93;10.20;;;;;;;;;;5012977;28;20186;-53
2022/02/26 12:15:00;;;;;;;14.53;9.83;;;;;;;;;;5014258;28;20196;-54
2022/02/26 12:17:26;;;;;;;20.67;10.90;;;;;;;;;;5002005;28;20186;-55
2022/02/26 12:19:54;;;;;;;25.67;10.77;;;;;;;;;;5021791;28;20319;-55
2022/02/26 12:22:23;;;;;;;56.20;12.23;;;;;;;;;;5012397;28;20182;-54
2022/02/26 12:24:53;;;;;;;32.10;11.80;;;;;;;;;;5034345;28;20267;-55
2022/02/26 12:27:31;;;;;;;27.60;11.20;;;;;;;;;;5016140;28;20246;-55
2022/02/26 12:29:59;;;;;;;20.47;10.93;;;;;;;;;;5019477;28;20235;-55
2022/02/26 12:32:29;;;;;;;18.87;9.90;;;;;;;;;;5018108;28;20201;-54
2022/02/26 12:35:03;;;;;;;17.70;9.33;;;;;;;;;;5017252;28;20743;-54
2022/02/26 12:37:32;;;;;;;16.37;9.63;;;;;;;;;;5018079;28;20668;-57
2022/02/26 12:40:00;;;;;;;20.00;9.60;;;;;;;;;;5017271;28;20898;-55
2022/02/26 12:42:27;;;;;;;16.67;8.83;;;;;;;;;;5012770;28;20680;-54
2022/02/26 12:45:13;;;;;;;19.73;9.67;;;;;;;;;;5021298;28;20802;-55
2022/02/26 12:47:39;;;;;;;15.30;7.00;;;;;;;;;;5011597;28;20178;-55
2022/02/26 12:50:06;;;;;;;11.57;7.10;;;;;;;;;;5021325;28;20182;-54
2022/02/26 12:52:33;;;;;;;14.03;7.13;;;;;;;;;;5020765;28;20182;-54
2022/02/26 12:55:00;;;;;;;15.17;7.50;;;;;;;;;;5043049;28;20189;-54
2022/02/26 12:57:45;;;;;;;14.77;6.90;;;;;;;;;;5023521;28;20206;-55
2022/02/26 13:00:22;;;;;;;12.73;5.27;;;;;;;;;;5029185;28;20221;-54
2022/02/26 13:02:58;;;;;;;16.37;6.20;;;;;;;;;;5024671;28;20181;-56
2022/02/26 13:05:25;;;;;;;14.43;6.10;;;;;;;;;;5007899;28;20201;-54
2022/02/26 13:07:59;;;;;;;11.97;6.60;;;;;;;;;;5024360;28;20503;-55
2022/02/26 13:10:29;;;;;;;18.20;5.87;;;;;;;;;;5026523;28;20729;-54
2022/02/26 13:12:55;;;;;;;12.53;5.13;;;;;;;;;;5023630;28;20180;-56
2022/02/26 13:15:21;;;;;;;9.87;5.50;;;;;;;;;;5026805;28;20182;-54
2022/02/26 13:17:48;;;;;;;12.00;5.77;;;;;;;;;;5027914;28;20186;-54
2022/02/26 13:20:25;;;;;;;11.13;5.50;;;;;;;;;;5018454;28;20183;-56
2022/02/26 13:22:52;;;;;;;12.17;4.83;;;;;;;;;;5022012;28;20630;-55
2022/02/26 13:25:19;;;;;;;11.70;4.80;;;;;;;;;;5038650;28;20245;-54
2022/02/26 13:27:50;;;;;;;9.83;4.93;;;;;;;;;;5023980;28;20293;-55
2022/02/26 13:30:17;;;;;;;11.03;4.87;;;;;;;;;;5022020;28;20629;-54
2022/02/26 13:32:46;;;;;;;12.70;5.13;;;;;;;;;;5018342;28;20241;-54
2022/02/26 13:35:13;;;;;;;10.43;4.70;;;;;;;;;;5025818;28;20743;-54
2022/02/26 13:37:39;;;;;;;8.63;4.97;;;;;;;;;;5029945;28;20185;-54
2022/02/26 13:40:06;;;;;;;10.43;4.57;;;;;;;;;;5022966;28;20179;-55
2022/02/26 13:42:33;;;;;;;10.50;5.53;;;;;;;;;;5026913;28;20544;-55
2022/02/26 13:45:01;;;;;;;9.40;4.97;;;;;;;;;;5023314;28;20248;-53
2022/02/26 13:47:28;;;;;;;9.77;4.37;;;;;;;;;;5019393;28;20312;-54
2022/02/26 13:49:55;;;;;;;8.77;4.70;;;;;;;;;;5016721;28;20390;-55
2022/02/26 13:52:22;;;;;;;8.40;4.13;;;;;;;;;;5022594;28;20185;-54
2022/02/26 13:54:49;;;;;;;11.67;5.20;;;;;;;;;;5025488;28;20202;-54
2022/02/26 13:57:16;;;;;;;13.77;5.10;;;;;;;;;;5010268;28;20708;-54
2022/02/26 13:59:43;;;;;;;10.93;4.63;;;;;;;;;;5017913;28;20178;-55
2022/02/26 14:02:20;;;;;;;12.40;4.50;;;;;;;;;;5016773;28;20179;-54
2022/02/26 14:04:46;;;;;;;10.07;4.67;;;;;;;;;;4998986;28;20869;-53
2022/02/26 14:07:12;;;;;;;9.57;4.20;;;;;;;;;;5021393;28;20170;-54
2022/02/26 14:09:43;;;;;;;9.27;5.20;;;;;;;;;;5026526;28;20174;-54
2022/02/26 14:12:10;;;;;;;7.90;4.20;;;;;;;;;;5019378;28;20205;-55
2022/02/26 14:14:37;;;;;;;8.93;4.37;;;;;;;;;;5042083;28;20213;-56
2022/02/26 14:17:06;;;;;;;10.93;4.93;;;;;;;;;;5020628;28;20185;-55
2022/02/26 14:19:37;;;;;;;12.50;5.40;;;;;;;;;;5015012;28;20174;-55
2022/02/26 14:22:04;;;;;;;9.57;5.07;;;;;;;;;;5012933;28;20182;-55
2022/02/26 14:24:34;;;;;;;10.40;4.30;;;;;;;;;;5010233;28;20189;-55
2022/02/26 14:27:00;;;;;;;10.50;4.47;;;;;;;;;;5030212;28;20243;-55
2022/02/26 14:29:28;;;;;;;7.50;4.37;;;;;;;;;;5012856;28;20179;-54
2022/02/26 14:31:58;;;;;;;16.73;4.70;;;;;;;;;;5023287;28;20178;-55
2022/02/26 14:34:24;;;;;;;10.63;4.87;;;;;;;;;;5024693;28;20325;-54